Latest Weather Observations for Omeo

IDV60801

Issued at 5:05 pm EDT Saturday 1 November 2014 (issued every 30 minutes, with the page automatically refreshed every 10 minutes)

About weather observations | Map of weather stations | Latest weather observations for VIC | Other Formats
Station Details ID: 083090 Name: OMEO Lat: -37.10 Lon: 147.60 Height: 689.8 m
Data from the previous 72 hours. | See also: Recent months at Omeo
Date/Time
EDT
Temp
°C
App
Temp
°C
Dew
Point
Rel
Hum
%
Delta-T
°C
Wind Press
QNH
hPa
Press
MSL
hPa
Rain
since 9 am
mm
Dir
 
Spd
km/h
Gust
km/h
Spd
kts
Gust
kts
01/05:05pm 13.3 6.4 2.5 48 5.0 WNW 28 50 15 27 1004.7 1002.8 4.2
01/05:00pm 14.1 8.8 3.0 47 5.2 NW 20 32 11 17 1004.3 1002.4 4.2
01/04:30pm 15.8 9.8 0.8 36 6.8 W 22 35 12 19 1003.8 1002.0 4.2
01/04:00pm 15.8 9.9 1.5 38 6.6 W 22 37 12 20 1003.5 1001.6 4.2
01/03:30pm 16.9 11.8 6.1 49 5.5 NW 22 33 12 18 1002.9 1001.0 4.2
01/03:00pm 15.6 11.2 7.6 59 4.2 WNW 20 33 11 18 1003.1 1001.2 4.2
01/02:30pm 14.0 9.0 8.0 67 3.1 W 24 43 13 23 1003.3 1001.4 4.2
01/02:00pm 17.9 14.7 7.0 49 5.7 W 13 22 7 12 1002.7 1000.8 4.0
01/01:30pm 17.4 12.4 8.0 54 5.0 WNW 24 37 13 20 1002.7 1000.8 4.0
01/01:00pm 16.1 14.0 12.3 78 2.2 N 15 24 8 13 1002.3 1000.4 4.0
01/12:30pm 15.6 13.4 13.3 86 1.3 N 17 24 9 13 1002.1 1000.2 4.0
01/12:00pm 14.5 12.1 12.7 89 1.0 N 17 24 9 13 1002.2 1000.3 4.0
01/11:30am 13.9 11.5 12.6 92 0.7 N 17 24 9 13 1002.4 1000.6 3.2
01/11:00am 14.3 12.2 12.3 88 1.1 N 15 22 8 12 1001.6 999.7 1.8
01/10:30am 15.7 11.9 11.1 74 2.5 N 22 33 12 18 1001.6 1000.6 0.0
01/10:00am 18.3 14.4 9.4 56 4.9 WNW 20 32 11 17 1001.3 1000.3 0.0
01/09:38am 19.4 13.6 7.8 47 6.2 NW 28 50 15 27 1001.2 1000.2 0.0
01/09:30am 19.8 15.4 7.5 45 6.5 NW 20 37 11 20 1001.3 1000.3 0.0
01/09:00am 20.2 17.4 6.9 42 7.0 NW 11 24 6 13 1001.1 1000.1 0.2
01/08:30am 20.3 17.6 7.3 43 6.9 NNW 11 22 6 12 1001.3 1000.3 -
01/08:00am 21.0 16.5 6.9 40 7.5 NNW 20 33 11 18 1001.4 1000.4 -
01/07:30am 20.9 18.4 9.8 49 6.2 NNW 13 19 7 10 999.8 998.8 -
01/07:00am 19.8 16.5 7.9 46 6.4 NNW 15 26 8 14 1000.4 999.5 -
01/06:30am 19.0 15.9 5.5 41 6.8 NNW 11 17 6 9 1000.4 999.5 -
01/06:00am 19.1 14.6 4.1 37 7.5 NNW 17 24 9 13 1000.1 999.1 -
01/05:30am 19.7 14.4 3.0 33 8.1 NNW 20 28 11 15 1000.0 999.0 -
01/05:00am 19.6 13.5 2.5 32 8.3 NNW 24 35 13 19 999.7 998.7 -
01/04:30am 18.6 13.4 2.4 34 7.7 NNW 19 32 10 17 999.6 998.6 -
01/04:00am 17.8 12.4 2.5 36 7.3 N 20 28 11 15 999.7 998.7 -
01/03:30am 17.7 13.3 2.5 36 7.2 N 15 22 8 12 1000.0 999.0 -
01/03:00am 15.9 11.4 4.0 45 5.8 NNW 17 24 9 13 1000.4 999.5 -
01/02:30am 13.9 9.7 5.5 57 4.1 NNW 17 22 9 12 1000.6 - 0.2
01/02:00am 12.5 9.1 6.1 65 3.2 NNW 13 17 7 9 1001.2 1000.2 0.2
01/01:30am 13.1 10.9 6.2 63 3.4 NW 7 9 4 5 1002.2 1001.3 0.2
01/01:00am 13.5 10.7 6.8 64 3.4 NNW 11 15 6 8 1002.9 1002.0 0.2
01/12:30am 13.6 10.9 7.2 65 3.2 NNW 11 15 6 8 1003.4 1002.5 0.2
01/12:00am 14.2 11.4 7.0 62 3.7 NNW 11 15 6 8 1003.8 1002.9 0.2
 
Date/Time
EDT
Temp
°C
App
Temp
°C
Dew
Point
Rel
Hum
%
Delta-T
°C
Wind Press
QNH
hPa
Press
MSL
hPa
Rain
since 9 am
mm
Dir
 
Spd
km/h
Gust
km/h
Spd
kts
Gust
kts
31/11:30pm 15.1 12.3 6.9 58 4.2 N 11 17 6 9 1004.3 1003.4 0.2
31/11:00pm 15.4 12.3 7.2 58 4.2 N 13 17 7 9 1004.7 1003.8 0.2
31/10:30pm 15.5 12.3 7.0 57 4.3 NNW 13 17 7 9 1004.9 1004.0 0.2
31/10:00pm 16.6 14.1 6.7 52 5.1 NNW 9 11 5 6 1005.3 1004.4 0.2
31/09:30pm 17.1 14.9 6.3 49 5.5 N 7 11 4 6 1005.5 1004.7 0.2
31/09:00pm 18.2 15.6 6.1 45 6.2 NNW 9 11 5 6 1005.5 1004.7 0.2
31/08:30pm 19.2 17.0 5.3 40 7.0 N 6 7 3 4 1005.5 1004.7 0.2
31/08:00pm 20.8 18.3 4.8 35 8.1 NNW 7 9 4 5 1005.8 1004.9 0.2
31/07:30pm 22.7 19.3 3.8 29 9.5 NNW 11 15 6 8 1005.9 1005.0 0.2
31/07:00pm 24.9 19.7 3.5 25 10.9 NNW 20 30 11 16 1006.0 1005.1 0.2
31/06:30pm 25.9 21.7 3.8 24 11.4 NW 15 26 8 14 1006.2 1005.3 0.2
31/06:00pm 26.5 20.6 3.7 23 11.8 WNW 24 35 13 19 1006.5 1005.6 0.2
31/05:30pm 26.5 22.0 6.0 27 11.0 NW 19 26 10 14 1006.7 1005.9 0.2
31/05:00pm 26.5 21.6 4.9 25 11.4 NW 20 28 11 15 1006.8 1006.0 0.2
31/04:30pm 27.4 21.1 3.8 22 12.2 WNW 26 43 14 23 1006.8 1006.0 0.2
31/04:02pm 27.7 21.1 4.1 22 12.3 NW 28 46 15 25 1007.1 1006.3 0.2
31/04:00pm 27.7 20.8 2.7 20 12.8 NW 28 43 15 23 1007.1 1006.3 0.2
31/03:42pm 27.2 20.4 3.0 21 12.4 NW 28 46 15 25 1007.5 1006.6 0.2
31/03:30pm 26.8 20.7 2.7 21 12.2 NW 24 37 13 20 1007.8 1006.9 0.2
31/03:13pm 25.4 18.4 2.2 22 11.5 NW 28 46 15 25 1007.9 1007.1 0.2
31/03:00pm 25.2 19.2 3.2 24 11.2 NW 24 32 13 17 1008.0 1007.2 0.2
31/02:30pm 24.4 20.6 5.7 30 9.8 N 15 33 8 18 1008.5 1007.7 0.2
31/02:00pm 24.1 20.4 6.4 32 9.4 NNW 15 24 8 13 1009.3 1008.5 0.2
31/01:30pm 23.9 19.0 5.3 30 9.7 N 20 30 11 16 1009.6 1008.8 0.2
31/01:00pm 24.8 19.8 6.5 31 9.8 NNW 22 33 12 18 1009.9 1009.1 0.2
31/12:30pm 23.7 17.6 4.6 29 9.8 NNW 26 35 14 19 1010.1 1009.3 0.2
31/12:00pm 23.7 18.6 6.0 32 9.3 N 22 35 12 19 1010.5 1009.7 0.2
31/11:30am 23.0 18.6 6.7 35 8.7 N 19 28 10 15 1010.9 1010.1 0.2
31/11:00am 19.7 15.4 6.8 43 6.7 N 19 26 10 14 1011.3 1010.5 0.2
31/10:30am 19.8 15.4 7.2 44 6.6 N 20 28 11 15 1011.7 1011.0 0.2
31/10:00am 17.6 13.7 8.7 56 4.8 N 19 28 10 15 1012.4 1011.6 0.2
31/09:30am 15.5 11.4 6.0 53 4.8 N 17 26 9 14 1012.7 1011.9 0.2
31/09:00am 12.7 8.9 7.4 70 2.7 N 17 22 9 12 1013.1 1012.4 0.0
31/08:30am 10.2 6.4 7.4 83 1.4 N 17 24 9 13 1013.2 1012.5 0.0
31/08:00am 6.6 2.9 6.3 98 0.1 N 15 20 8 11 1013.2 1012.5 0.0
31/07:30am 4.3 1.7 4.2 99 0.0 NW 7 11 4 6 1013.5 1012.7 0.0
31/07:00am 3.5 1.3 3.4 99 0.0 WNW 4 9 2 5 1013.3 1012.6 0.0
31/06:30am 3.8 2.0 3.5 98 0.1 NW 2 7 1 4 1013.5 1012.7 0.0
31/06:00am 4.6 3.0 4.3 98 0.1 NW 2 7 1 4 1013.3 1012.6 0.0
31/05:30am 4.8 3.6 4.5 98 0.1 CALM 0 0 0 0 1013.0 1012.3 0.0
31/05:00am 5.4 3.9 5.1 98 0.1 WNW 2 7 1 4 1012.7 1011.9 0.0
31/04:30am 5.5 3.3 5.2 98 0.1 NNW 6 7 3 4 1012.6 1011.8 0.0
31/04:00am 6.1 4.8 5.8 98 0.1 W 2 7 1 4 1012.7 1011.9 0.0
31/03:30am 6.4 5.1 6.1 98 0.1 W 2 6 1 3 1013.0 1012.3 0.0
31/03:00am 6.7 4.7 6.4 98 0.1 W 6 7 3 4 1013.2 1012.5 0.0
31/02:30am 7.1 5.0 6.7 97 0.2 WNW 7 9 4 5 1013.2 1012.5 0.0
31/02:00am 7.7 5.7 7.3 97 0.2 W 7 9 4 5 1013.6 1012.8 0.0
31/01:30am 8.2 6.4 7.8 97 0.2 W 7 9 4 5 1013.8 1013.0 0.0
31/01:00am 8.9 8.6 8.5 97 0.2 CALM 0 0 0 0 1014.1 1013.3 0.0
31/12:30am 9.1 8.8 8.5 96 0.3 CALM 0 0 0 0 1014.2 1013.5 0.0
31/12:00am 9.3 9.0 8.7 96 0.3 CALM 0 0 0 0 1014.4 1013.7 0.0
 
Date/Time
EDT
Temp
°C
App
Temp
°C
Dew
Point
Rel
Hum
%
Delta-T
°C
Wind Press
QNH
hPa
Press
MSL
hPa
Rain
since 9 am
mm
Dir
 
Spd
km/h
Gust
km/h
Spd
kts
Gust
kts
30/11:30pm 9.9 9.0 9.3 96 0.3 S 4 7 2 4 1014.5 1013.8 0.0
30/11:00pm 9.4 9.1 8.6 95 0.4 CALM 0 6 0 3 1014.5 1013.8 0.0
30/10:30pm 9.5 9.2 8.6 94 0.5 CALM 0 6 0 3 1014.7 1014.0 0.0
30/10:00pm 9.7 8.1 8.8 94 0.5 SE 7 11 4 6 1014.6 1013.9 0.0
30/09:30pm 10.2 8.3 9.1 93 0.6 SE 9 17 5 9 1015.0 1014.2 0.0
30/09:00pm 10.7 8.5 9.3 91 0.7 SE 11 19 6 10 1014.7 1014.0 0.0
30/08:30pm 11.6 9.5 9.9 89 0.9 SE 11 17 6 9 1014.6 1013.9 0.0
30/08:00pm 12.6 9.8 10.1 85 1.3 SE 15 24 8 13 1014.3 1013.6 0.0
30/07:30pm 14.0 10.9 10.4 79 1.9 SE 17 30 9 16 1014.0 1013.2 0.0
30/07:00pm 17.6 15.6 10.0 61 4.2 E 11 19 6 10 1013.6 1012.8 0.0
30/06:30pm 21.6 16.6 3.8 31 8.9 NW 19 30 10 16 1012.9 1012.2 0.0
30/06:00pm 22.7 17.9 2.8 27 9.8 WNW 17 28 9 15 1012.8 1012.0 0.0
30/05:30pm 23.2 18.0 2.7 26 10.1 WNW 19 24 10 13 1012.6 1011.8 0.0
30/05:00pm 23.6 18.4 3.5 27 10.1 WNW 20 28 11 15 1012.4 1011.6 0.0
30/04:30pm 24.0 19.8 5.8 31 9.6 WNW 17 32 9 17 1012.3 1011.5 0.0
30/04:00pm 23.8 19.6 3.7 27 10.2 SW 15 26 8 14 1012.2 1011.4 0.0
30/03:30pm 23.5 18.6 4.0 28 9.9 W 19 28 10 15 1012.4 1011.6 0.0
30/03:00pm 23.6 19.2 4.5 29 9.8 NW 17 26 9 14 1012.7 1011.9 0.0
30/02:30pm 23.3 18.7 5.7 32 9.2 NW 19 32 10 17 1013.0 1012.3 0.0
30/02:00pm 23.0 18.1 5.0 31 9.3 NNW 20 30 11 16 1013.1 1012.4 0.0
30/01:30pm 23.0 17.7 3.0 27 9.9 NNW 20 41 11 22 1013.0 1012.3 0.0
30/01:00pm 23.0 18.6 5.0 31 9.3 WNW 17 22 9 12 1013.6 1012.8 0.0
30/12:30pm 21.9 17.0 4.0 31 9.0 NW 19 28 10 15 1013.7 1012.9 0.0
30/12:00pm 21.6 17.1 4.2 32 8.8 WNW 17 22 9 12 1013.9 1013.1 0.0
30/11:30am 21.6 16.7 5.1 34 8.4 NW 20 28 11 15 1014.2 1013.5 0.0
30/11:00am 20.2 15.8 4.7 36 7.8 NNW 17 28 9 15 1014.4 1013.7 0.0
30/10:30am 19.7 17.1 9.3 51 5.7 N 13 20 7 11 1015.0 1014.2 0.0
30/10:00am 16.7 13.7 9.4 62 3.9 N 15 22 8 12 1015.2 1014.4 0.0
30/09:30am 14.6 11.5 8.8 68 3.1 N 15 24 8 13 1015.2 1014.4 0.0
30/09:00am 12.9 8.8 8.0 72 2.5 NNW 19 28 10 15 1015.3 1014.5 0.0
30/08:30am 10.8 6.9 8.6 86 1.1 NNW 19 24 10 13 1015.2 1014.4 0.0
30/08:00am 8.3 6.1 8.0 98 0.1 NNW 9 13 5 7 1015.3 1014.5 0.0
30/07:30am 6.0 5.1 5.9 99 0.0 CALM 0 0 0 0 1015.6 1014.9 0.0
30/07:00am 4.2 1.5 3.9 98 0.1 W 7 11 4 6 1015.4 1014.6 0.0
30/06:30am 4.0 0.9 3.7 98 0.1 WNW 9 13 5 7 1015.2 1014.4 0.0
30/06:00am 4.1 0.7 3.8 98 0.1 NW 11 15 6 8 1015.0 1014.2 0.0
30/05:30am 4.1 1.6 3.8 98 0.1 NNW 6 9 3 5 1014.8 1014.1 0.0
30/05:00am 3.6 1.8 3.2 97 0.2 NW 2 7 1 4 1014.8 1014.1 0.0
30/04:30am 3.9 1.4 3.5 97 0.2 W 6 9 3 5 1015.1 1014.3 0.0
30/04:00am 4.3 2.2 3.9 97 0.2 WNW 4 6 2 3 1014.8 1014.1 0.0
30/03:30am 4.2 1.7 3.8 97 0.2 WNW 6 7 3 4 1015.1 1014.3 0.0
30/03:00am 4.3 2.2 3.9 97 0.2 WNW 4 7 2 4 1015.2 1014.4 0.0
30/02:30am 4.3 2.5 3.7 96 0.3 W 2 6 1 3 1015.4 1014.6 0.0
30/02:00am 4.7 3.4 4.1 96 0.3 CALM 0 0 0 0 1015.6 1014.9 0.0
30/01:30am 4.3 2.9 3.6 95 0.3 CALM 0 0 0 0 1015.9 1015.2 0.0
30/01:00am 4.7 2.2 4.0 95 0.3 SE 6 7 3 4 1016.0 1015.3 0.0
30/12:30am 5.4 3.1 4.7 95 0.3 SSE 6 9 3 5 1016.2 1015.5 0.0
30/12:00am 6.1 4.3 5.2 94 0.4 SE 4 6 2 3 1016.8 1016.1 0.0
 
Date/Time
EDT
Temp
°C
App
Temp
°C
Dew
Point
Rel
Hum
%
Delta-T
°C
Wind Press
QNH
hPa
Press
MSL
hPa
Rain
since 9 am
mm
Dir
 
Spd
km/h
Gust
km/h
Spd
kts
Gust
kts
29/11:30pm 6.6 4.5 5.6 93 0.5 SE 6 7 3 4 1016.8 1016.1 0.0
29/11:00pm 7.4 5.2 6.3 93 0.5 SE 7 7 4 4 1016.9 1016.2 0.0
29/10:30pm 8.4 6.6 7.0 91 0.7 SSE 6 9 3 5 1016.9 1016.2 0.0
29/10:00pm 9.1 7.8 7.5 90 0.8 S 4 9 2 5 1016.9 1016.2 0.0
29/09:30pm 9.3 8.3 7.4 88 0.9 SE 2 6 1 3 1017.0 1016.3 0.0
29/09:00pm 10.1 8.2 7.7 85 1.2 SE 7 11 4 6 1016.9 1016.2 0.0
29/08:30pm 11.3 9.7 8.2 81 1.6 SSE 6 9 3 5 1016.4 1015.7 0.0
29/08:00pm 12.5 9.7 8.6 77 2.0 SE 13 20 7 11 1016.0 1015.3 0.0
29/07:30pm 13.9 11.1 8.7 71 2.7 SSE 13 22 7 12 1015.5 1014.8 0.0
29/07:00pm 15.8 12.0 9.2 65 3.5 SE 19 26 10 14 1014.7 1014.0 0.0
29/06:30pm 17.6 13.9 9.5 59 4.4 SE 19 30 10 16 1014.2 1013.5 0.0
29/06:00pm 19.7 17.3 10.1 54 5.3 S 13 22 7 12 1014.0 1013.2 0.0
29/05:30pm 20.9 16.8 8.5 45 6.7 S 20 22 11 12 1013.8 1013.0 0.0

Other Formats:

Comma delimited format used in spreadsheet applications
http://www.bom.gov.au/fwo/IDV60801/IDV60801.94908.axf

JavaScript Object Notation format (JSON) in row-major order
http://www.bom.gov.au/fwo/IDV60801/IDV60801.94908.json